sensor_id;sensor_type;location;lat;lon;timestamp;P1;durP1;ratioP1;P2;durP2;ratioP2
20954;SDS011;10636;19.390;-99.256;2023-05-10T00:01:55;11.00;;;10.00;;
20954;SDS011;10636;19.390;-99.256;2023-05-10T00:04:23;11.43;;;10.32;;
20954;SDS011;10636;19.390;-99.256;2023-05-10T00:06:53;12.63;;;9.93;;
20954;SDS011;10636;19.390;-99.256;2023-05-10T00:09:21;11.20;;;10.13;;
20954;SDS011;10636;19.390;-99.256;2023-05-10T00:11:50;11.38;;;10.20;;
20954;SDS011;10636;19.390;-99.256;2023-05-10T00:14:18;11.18;;;10.18;;
20954;SDS011;10636;19.390;-99.256;2023-05-10T00:16:48;11.18;;;10.18;;
20954;SDS011;10636;19.390;-99.256;2023-05-10T00:19:17;11.10;;;10.07;;
20954;SDS011;10636;19.390;-99.256;2023-05-10T00:21:45;11.05;;;10.02;;
20954;SDS011;10636;19.390;-99.256;2023-05-10T00:24:14;11.38;;;10.38;;
20954;SDS011;10636;19.390;-99.256;2023-05-10T00:26:42;11.70;;;10.70;;
20954;SDS011;10636;19.390;-99.256;2023-05-10T00:29:11;11.18;;;10.02;;
20954;SDS011;10636;19.390;-99.256;2023-05-10T00:31:39;11.15;;;10.05;;
20954;SDS011;10636;19.390;-99.256;2023-05-10T00:34:09;10.20;;;9.30;;
20954;SDS011;10636;19.390;-99.256;2023-05-10T00:36:40;14.32;;;10.52;;
20954;SDS011;10636;19.390;-99.256;2023-05-10T00:39:08;10.80;;;9.82;;
20954;SDS011;10636;19.390;-99.256;2023-05-10T00:41:37;10.85;;;9.75;;
20954;SDS011;10636;19.390;-99.256;2023-05-10T00:44:06;10.80;;;9.73;;
20954;SDS011;10636;19.390;-99.256;2023-05-10T00:46:34;10.07;;;9.18;;
20954;SDS011;10636;19.390;-99.256;2023-05-10T00:49:03;10.30;;;9.20;;
20954;SDS011;10636;19.390;-99.256;2023-05-10T00:51:33;10.10;;;9.20;;
20954;SDS011;10636;19.390;-99.256;2023-05-10T00:54:02;9.70;;;8.80;;
20954;SDS011;10636;19.390;-99.256;2023-05-10T00:56:31;10.38;;;9.48;;
20954;SDS011;10636;19.390;-99.256;2023-05-10T00:58:59;10.20;;;9.27;;
20954;SDS011;10636;19.390;-99.256;2023-05-10T01:01:28;10.43;;;9.45;;
20954;SDS011;10636;19.390;-99.256;2023-05-10T01:03:57;9.93;;;9.13;;
20954;SDS011;10636;19.390;-99.256;2023-05-10T01:06:26;10.10;;;9.13;;
20954;SDS011;10636;19.390;-99.256;2023-05-10T01:09:01;9.65;;;8.77;;
20954;SDS011;10636;19.390;-99.256;2023-05-10T01:11:29;9.77;;;8.98;;
20954;SDS011;10636;19.390;-99.256;2023-05-10T01:13:58;9.82;;;8.98;;
20954;SDS011;10636;19.390;-99.256;2023-05-10T01:16:26;9.38;;;8.55;;
20954;SDS011;10636;19.390;-99.256;2023-05-10T01:18:57;9.48;;;8.68;;
20954;SDS011;10636;19.390;-99.256;2023-05-10T01:21:27;9.82;;;9.02;;
20954;SDS011;10636;19.390;-99.256;2023-05-10T01:24:15;9.48;;;8.77;;
20954;SDS011;10636;19.390;-99.256;2023-05-10T01:27:17;9.90;;;9.10;;
20954;SDS011;10636;19.390;-99.256;2023-05-10T01:33:11;10.23;;;9.32;;
20954;SDS011;10636;19.390;-99.256;2023-05-10T01:35:45;10.88;;;9.77;;
20954;SDS011;10636;19.390;-99.256;2023-05-10T01:38:26;11.13;;;10.05;;
20954;SDS011;10636;19.390;-99.256;2023-05-10T01:41:02;10.95;;;10.00;;
20954;SDS011;10636;19.390;-99.256;2023-05-10T01:43:41;10.85;;;9.95;;
20954;SDS011;10636;19.390;-99.256;2023-05-10T01:46:17;11.25;;;10.15;;
20954;SDS011;10636;19.390;-99.256;2023-05-10T01:48:54;11.00;;;10.10;;
20954;SDS011;10636;19.390;-99.256;2023-05-10T01:51:26;10.45;;;9.52;;
20954;SDS011;10636;19.390;-99.256;2023-05-10T01:54:00;11.88;;;10.77;;
20954;SDS011;10636;19.390;-99.256;2023-05-10T01:56:32;11.13;;;10.02;;
20954;SDS011;10636;19.390;-99.256;2023-05-10T01:59:03;11.70;;;10.68;;
20954;SDS011;10636;19.390;-99.256;2023-05-10T02:01:36;11.73;;;10.52;;
20954;SDS011;10636;19.390;-99.256;2023-05-10T02:04:08;12.05;;;10.95;;
20954;SDS011;10636;19.390;-99.256;2023-05-10T02:06:39;12.40;;;11.25;;
20954;SDS011;10636;19.390;-99.256;2023-05-10T02:09:09;12.60;;;11.40;;
20954;SDS011;10636;19.390;-99.256;2023-05-10T02:11:39;12.27;;;11.05;;
20954;SDS011;10636;19.390;-99.256;2023-05-10T02:14:10;12.38;;;10.98;;
20954;SDS011;10636;19.390;-99.256;2023-05-10T02:16:42;11.55;;;10.45;;
20954;SDS011;10636;19.390;-99.256;2023-05-10T02:19:13;12.63;;;11.50;;
20954;SDS011;10636;19.390;-99.256;2023-05-10T02:21:47;12.43;;;11.35;;
20954;SDS011;10636;19.390;-99.256;2023-05-10T02:24:18;12.80;;;11.52;;
20954;SDS011;10636;19.390;-99.256;2023-05-10T02:26:48;11.95;;;10.85;;
20954;SDS011;10636;19.390;-99.256;2023-05-10T02:29:21;12.82;;;11.50;;
20954;SDS011;10636;19.390;-99.256;2023-05-10T02:31:51;13.02;;;11.90;;
20954;SDS011;10636;19.390;-99.256;2023-05-10T02:34:23;12.38;;;11.13;;
20954;SDS011;10636;19.390;-99.256;2023-05-10T02:36:54;13.40;;;12.20;;
20954;SDS011;10636;19.390;-99.256;2023-05-10T02:39:23;12.85;;;11.52;;
20954;SDS011;10636;19.390;-99.256;2023-05-10T02:41:54;13.23;;;11.93;;
20954;SDS011;10636;19.390;-99.256;2023-05-10T02:44:24;12.98;;;11.60;;
20954;SDS011;10636;19.390;-99.256;2023-05-10T02:46:56;12.38;;;11.05;;
20954;SDS011;10636;19.390;-99.256;2023-05-10T02:49:27;11.60;;;10.50;;
20954;SDS011;10636;19.390;-99.256;2023-05-10T02:51:56;12.18;;;10.68;;
20954;SDS011;10636;19.390;-99.256;2023-05-10T02:54:29;17.15;;;15.13;;
20954;SDS011;10636;19.390;-99.256;2023-05-10T02:57:00;16.05;;;14.55;;
20954;SDS011;10636;19.390;-99.256;2023-05-10T02:59:33;16.63;;;14.70;;
20954;SDS011;10636;19.390;-99.256;2023-05-10T03:02:02;35.03;;;24.13;;
20954;SDS011;10636;19.390;-99.256;2023-05-10T03:04:32;42.35;;;31.75;;
20954;SDS011;10636;19.390;-99.256;2023-05-10T03:07:01;39.80;;;32.13;;
20954;SDS011;10636;19.390;-99.256;2023-05-10T03:09:30;35.90;;;31.98;;
20954;SDS011;10636;19.390;-99.256;2023-05-10T03:12:00;35.97;;;32.28;;
20954;SDS011;10636;19.390;-99.256;2023-05-10T03:14:39;34.53;;;28.17;;
20954;SDS011;10636;19.390;-99.256;2023-05-10T03:17:18;32.28;;;25.95;;
20954;SDS011;10636;19.390;-99.256;2023-05-10T03:19:53;31.23;;;23.98;;
20954;SDS011;10636;19.390;-99.256;2023-05-10T03:22:24;26.65;;;21.02;;
20954;SDS011;10636;19.390;-99.256;2023-05-10T03:24:55;22.02;;;19.77;;
20954;SDS011;10636;19.390;-99.256;2023-05-10T03:27:25;22.98;;;20.25;;
20954;SDS011;10636;19.390;-99.256;2023-05-10T03:29:55;21.25;;;19.00;;
20954;SDS011;10636;19.390;-99.256;2023-05-10T03:32:24;18.55;;;16.48;;
20954;SDS011;10636;19.390;-99.256;2023-05-10T03:34:54;18.52;;;15.65;;
20954;SDS011;10636;19.390;-99.256;2023-05-10T03:37:23;17.20;;;15.43;;
20954;SDS011;10636;19.390;-99.256;2023-05-10T03:39:51;16.73;;;15.13;;
20954;SDS011;10636;19.390;-99.256;2023-05-10T03:42:20;15.68;;;14.07;;
20954;SDS011;10636;19.390;-99.256;2023-05-10T03:44:48;14.63;;;12.82;;
20954;SDS011;10636;19.390;-99.256;2023-05-10T03:47:17;14.48;;;12.98;;
20954;SDS011;10636;19.390;-99.256;2023-05-10T03:49:45;13.93;;;12.57;;
20954;SDS011;10636;19.390;-99.256;2023-05-10T03:52:15;13.63;;;12.27;;
20954;SDS011;10636;19.390;-99.256;2023-05-10T03:54:44;13.98;;;12.60;;
20954;SDS011;10636;19.390;-99.256;2023-05-10T03:57:12;13.75;;;12.40;;
20954;SDS011;10636;19.390;-99.256;2023-05-10T03:59:40;13.57;;;12.27;;
20954;SDS011;10636;19.390;-99.256;2023-05-10T04:02:09;12.85;;;11.27;;
20954;SDS011;10636;19.390;-99.256;2023-05-10T04:04:37;13.00;;;11.35;;
20954;SDS011;10636;19.390;-99.256;2023-05-10T04:07:06;12.73;;;11.43;;
20954;SDS011;10636;19.390;-99.256;2023-05-10T04:09:37;13.13;;;12.02;;
20954;SDS011;10636;19.390;-99.256;2023-05-10T04:12:06;12.20;;;10.82;;
20954;SDS011;10636;19.390;-99.256;2023-05-10T04:14:34;12.60;;;11.50;;
20954;SDS011;10636;19.390;-99.256;2023-05-10T04:17:02;12.38;;;11.27;;
20954;SDS011;10636;19.390;-99.256;2023-05-10T04:19:31;12.45;;;11.25;;
20954;SDS011;10636;19.390;-99.256;2023-05-10T04:21:59;12.00;;;10.90;;
20954;SDS011;10636;19.390;-99.256;2023-05-10T04:24:29;12.07;;;10.80;;
20954;SDS011;10636;19.390;-99.256;2023-05-10T04:26:59;12.32;;;11.18;;
20954;SDS011;10636;19.390;-99.256;2023-05-10T04:29:27;12.07;;;10.95;;
20954;SDS011;10636;19.390;-99.256;2023-05-10T04:31:56;11.93;;;10.73;;
20954;SDS011;10636;19.390;-99.256;2023-05-10T04:34:25;12.13;;;11.02;;
20954;SDS011;10636;19.390;-99.256;2023-05-10T04:36:53;12.57;;;11.38;;
20954;SDS011;10636;19.390;-99.256;2023-05-10T04:39:21;11.93;;;10.63;;
20954;SDS011;10636;19.390;-99.256;2023-05-10T04:41:50;11.85;;;10.85;;
20954;SDS011;10636;19.390;-99.256;2023-05-10T04:44:20;11.68;;;10.45;;
20954;SDS011;10636;19.390;-99.256;2023-05-10T04:46:52;12.07;;;10.90;;
20954;SDS011;10636;19.390;-99.256;2023-05-10T04:49:20;11.98;;;10.88;;
20954;SDS011;10636;19.390;-99.256;2023-05-10T04:51:49;11.77;;;10.77;;
20954;SDS011;10636;19.390;-99.256;2023-05-10T04:54:17;11.77;;;10.77;;
20954;SDS011;10636;19.390;-99.256;2023-05-10T04:56:45;12.30;;;11.20;;
20954;SDS011;10636;19.390;-99.256;2023-05-10T04:59:14;11.88;;;10.68;;
20954;SDS011;10636;19.390;-99.256;2023-05-10T05:01:44;12.10;;;10.90;;
20954;SDS011;10636;19.390;-99.256;2023-05-10T05:04:12;12.13;;;10.90;;
20954;SDS011;10636;19.390;-99.256;2023-05-10T05:06:41;12.73;;;11.55;;
20954;SDS011;10636;19.390;-99.256;2023-05-10T05:09:11;11.90;;;10.70;;
20954;SDS011;10636;19.390;-99.256;2023-05-10T05:11:39;11.35;;;10.35;;
20954;SDS011;10636;19.390;-99.256;2023-05-10T05:14:08;11.70;;;10.65;;
20954;SDS011;10636;19.390;-99.256;2023-05-10T05:16:36;11.63;;;10.52;;
20954;SDS011;10636;19.390;-99.256;2023-05-10T05:19:06;11.70;;;10.50;;
20954;SDS011;10636;19.390;-99.256;2023-05-10T05:21:35;11.43;;;10.32;;
20954;SDS011;10636;19.390;-99.256;2023-05-10T05:24:04;11.70;;;10.60;;
20954;SDS011;10636;19.390;-99.256;2023-05-10T05:26:33;11.43;;;10.52;;
20954;SDS011;10636;19.390;-99.256;2023-05-10T05:29:02;11.65;;;10.57;;
20954;SDS011;10636;19.390;-99.256;2023-05-10T05:31:33;11.27;;;10.27;;
20954;SDS011;10636;19.390;-99.256;2023-05-10T05:34:01;11.10;;;10.05;;
20954;SDS011;10636;19.390;-99.256;2023-05-10T05:36:32;10.98;;;9.98;;
20954;SDS011;10636;19.390;-99.256;2023-05-10T05:39:03;11.52;;;10.38;;
20954;SDS011;10636;19.390;-99.256;2023-05-10T05:41:32;11.70;;;10.70;;
20954;SDS011;10636;19.390;-99.256;2023-05-10T05:44:00;11.77;;;10.77;;
20954;SDS011;10636;19.390;-99.256;2023-05-10T05:46:29;11.18;;;10.18;;
20954;SDS011;10636;19.390;-99.256;2023-05-10T05:48:57;11.35;;;10.25;;
20954;SDS011;10636;19.390;-99.256;2023-05-10T05:51:25;11.25;;;10.02;;
20954;SDS011;10636;19.390;-99.256;2023-05-10T05:53:56;11.48;;;10.40;;
20954;SDS011;10636;19.390;-99.256;2023-05-10T05:56:24;11.65;;;10.65;;
20954;SDS011;10636;19.390;-99.256;2023-05-10T05:58:52;11.30;;;10.20;;
20954;SDS011;10636;19.390;-99.256;2023-05-10T06:01:21;11.40;;;10.25;;
20954;SDS011;10636;19.390;-99.256;2023-05-10T06:03:49;11.20;;;10.30;;
20954;SDS011;10636;19.390;-99.256;2023-05-10T06:06:18;11.60;;;10.55;;
20954;SDS011;10636;19.390;-99.256;2023-05-10T06:08:46;11.70;;;10.70;;
20954;SDS011;10636;19.390;-99.256;2023-05-10T06:11:16;11.82;;;10.73;;
20954;SDS011;10636;19.390;-99.256;2023-05-10T06:13:46;11.77;;;10.75;;
20954;SDS011;10636;19.390;-99.256;2023-05-10T06:16:15;11.35;;;10.35;;
20954;SDS011;10636;19.390;-99.256;2023-05-10T06:18:43;11.80;;;10.80;;
20954;SDS011;10636;19.390;-99.256;2023-05-10T06:21:11;10.95;;;10.05;;
20954;SDS011;10636;19.390;-99.256;2023-05-10T06:23:40;11.05;;;9.98;;
20954;SDS011;10636;19.390;-99.256;2023-05-10T06:26:09;11.85;;;10.40;;
20954;SDS011;10636;19.390;-99.256;2023-05-10T06:28:39;11.55;;;10.50;;
20954;SDS011;10636;19.390;-99.256;2023-05-10T06:31:08;11.20;;;10.30;;
20954;SDS011;10636;19.390;-99.256;2023-05-10T06:33:37;11.90;;;10.90;;
20954;SDS011;10636;19.390;-99.256;2023-05-10T06:36:05;11.18;;;10.18;;
20954;SDS011;10636;19.390;-99.256;2023-05-10T06:38:34;11.60;;;10.60;;
20954;SDS011;10636;19.390;-99.256;2023-05-10T06:41:02;12.07;;;11.07;;
20954;SDS011;10636;19.390;-99.256;2023-05-10T06:43:31;11.93;;;10.82;;
20954;SDS011;10636;19.390;-99.256;2023-05-10T06:46:01;12.02;;;10.93;;
20954;SDS011;10636;19.390;-99.256;2023-05-10T06:48:29;10.73;;;9.73;;
20954;SDS011;10636;19.390;-99.256;2023-05-10T06:50:58;12.25;;;11.05;;
20954;SDS011;10636;19.390;-99.256;2023-05-10T06:53:26;11.35;;;10.20;;
20954;SDS011;10636;19.390;-99.256;2023-05-10T06:55:55;12.45;;;11.35;;
20954;SDS011;10636;19.390;-99.256;2023-05-10T06:58:23;11.85;;;10.75;;
20954;SDS011;10636;19.390;-99.256;2023-05-10T07:00:52;11.48;;;10.48;;
20954;SDS011;10636;19.390;-99.256;2023-05-10T07:03:22;11.57;;;10.57;;
20954;SDS011;10636;19.390;-99.256;2023-05-10T07:05:50;11.43;;;10.48;;
20954;SDS011;10636;19.390;-99.256;2023-05-10T07:08:19;11.68;;;10.68;;
20954;SDS011;10636;19.390;-99.256;2023-05-10T07:10:47;11.35;;;10.30;;
20954;SDS011;10636;19.390;-99.256;2023-05-10T07:13:16;11.73;;;10.63;;
20954;SDS011;10636;19.390;-99.256;2023-05-10T07:15:44;12.07;;;11.07;;
20954;SDS011;10636;19.390;-99.256;2023-05-10T07:18:12;11.57;;;10.50;;
20954;SDS011;10636;19.390;-99.256;2023-05-10T07:20:43;11.95;;;10.80;;
20954;SDS011;10636;19.390;-99.256;2023-05-10T07:23:11;11.73;;;10.73;;
20954;SDS011;10636;19.390;-99.256;2023-05-10T07:25:39;12.48;;;11.32;;
20954;SDS011;10636;19.390;-99.256;2023-05-10T07:28:08;12.45;;;11.35;;
20954;SDS011;10636;19.390;-99.256;2023-05-10T07:30:36;12.05;;;11.05;;
20954;SDS011;10636;19.390;-99.256;2023-05-10T07:33:05;12.20;;;11.20;;
20954;SDS011;10636;19.390;-99.256;2023-05-10T07:35:33;12.50;;;11.30;;
20954;SDS011;10636;19.390;-99.256;2023-05-10T07:38:04;12.55;;;11.43;;
20954;SDS011;10636;19.390;-99.256;2023-05-10T07:40:32;12.15;;;10.95;;
20954;SDS011;10636;19.390;-99.256;2023-05-10T07:43:01;12.02;;;11.02;;
20954;SDS011;10636;19.390;-99.256;2023-05-10T07:45:29;12.48;;;11.38;;
20954;SDS011;10636;19.390;-99.256;2023-05-10T07:47:58;13.05;;;11.80;;
20954;SDS011;10636;19.390;-99.256;2023-05-10T07:50:26;12.48;;;11.38;;
20954;SDS011;10636;19.390;-99.256;2023-05-10T07:52:54;13.02;;;11.85;;
20954;SDS011;10636;19.390;-99.256;2023-05-10T07:55:24;13.40;;;12.20;;
20954;SDS011;10636;19.390;-99.256;2023-05-10T07:57:53;13.35;;;12.15;;
20954;SDS011;10636;19.390;-99.256;2023-05-10T08:00:21;13.25;;;12.05;;
20954;SDS011;10636;19.390;-99.256;2023-05-10T08:02:50;12.93;;;11.68;;
20954;SDS011;10636;19.390;-99.256;2023-05-10T08:05:19;13.63;;;12.35;;
20954;SDS011;10636;19.390;-99.256;2023-05-10T08:07:47;13.55;;;12.32;;
20954;SDS011;10636;19.390;-99.256;2023-05-10T08:10:16;12.82;;;11.52;;
20954;SDS011;10636;19.390;-99.256;2023-05-10T08:12:46;12.98;;;11.77;;
20954;SDS011;10636;19.390;-99.256;2023-05-10T08:15:14;13.25;;;11.95;;
20954;SDS011;10636;19.390;-99.256;2023-05-10T08:17:43;13.77;;;12.48;;
20954;SDS011;10636;19.390;-99.256;2023-05-10T08:20:11;12.65;;;11.48;;
20954;SDS011;10636;19.390;-99.256;2023-05-10T08:22:42;12.88;;;11.77;;
20954;SDS011;10636;19.390;-99.256;2023-05-10T08:25:10;12.73;;;11.43;;
20954;SDS011;10636;19.390;-99.256;2023-05-10T08:27:39;12.88;;;11.60;;
20954;SDS011;10636;19.390;-99.256;2023-05-10T08:30:09;12.77;;;11.48;;
20954;SDS011;10636;19.390;-99.256;2023-05-10T08:32:39;12.75;;;11.55;;
20954;SDS011;10636;19.390;-99.256;2023-05-10T08:35:07;13.40;;;12.10;;
20954;SDS011;10636;19.390;-99.256;2023-05-10T08:37:35;13.23;;;12.13;;
20954;SDS011;10636;19.390;-99.256;2023-05-10T08:40:04;13.48;;;12.38;;
20954;SDS011;10636;19.390;-99.256;2023-05-10T08:42:34;12.93;;;11.63;;
20954;SDS011;10636;19.390;-99.256;2023-05-10T08:45:07;13.00;;;11.80;;
20954;SDS011;10636;19.390;-99.256;2023-05-10T08:47:38;13.23;;;12.13;;
20954;SDS011;10636;19.390;-99.256;2023-05-10T08:50:07;12.63;;;11.52;;
20954;SDS011;10636;19.390;-99.256;2023-05-10T08:52:37;12.93;;;11.63;;
20954;SDS011;10636;19.390;-99.256;2023-05-10T08:55:07;13.27;;;12.07;;
20954;SDS011;10636;19.390;-99.256;2023-05-10T08:57:36;13.10;;;12.05;;
20954;SDS011;10636;19.390;-99.256;2023-05-10T09:00:05;13.02;;;11.52;;
20954;SDS011;10636;19.390;-99.256;2023-05-10T09:02:36;13.23;;;12.02;;
20954;SDS011;10636;19.390;-99.256;2023-05-10T09:05:05;13.07;;;11.77;;
20954;SDS011;10636;19.390;-99.256;2023-05-10T09:07:36;12.80;;;11.50;;
20954;SDS011;10636;19.390;-99.256;2023-05-10T09:10:04;12.73;;;11.60;;
20954;SDS011;10636;19.390;-99.256;2023-05-10T09:12:34;13.27;;;12.02;;
20954;SDS011;10636;19.390;-99.256;2023-05-10T09:15:03;12.82;;;11.77;;
20954;SDS011;10636;19.390;-99.256;2023-05-10T09:17:32;13.13;;;11.82;;
20954;SDS011;10636;19.390;-99.256;2023-05-10T09:20:04;12.63;;;11.57;;
20954;SDS011;10636;19.390;-99.256;2023-05-10T09:22:33;13.18;;;11.98;;
20954;SDS011;10636;19.390;-99.256;2023-05-10T09:25:03;13.18;;;12.00;;
20954;SDS011;10636;19.390;-99.256;2023-05-10T09:27:33;13.73;;;12.43;;
20954;SDS011;10636;19.390;-99.256;2023-05-10T09:30:02;13.57;;;12.45;;
20954;SDS011;10636;19.390;-99.256;2023-05-10T09:32:37;12.80;;;11.50;;
20954;SDS011;10636;19.390;-99.256;2023-05-10T09:35:09;13.07;;;11.85;;
20954;SDS011;10636;19.390;-99.256;2023-05-10T09:37:39;13.27;;;11.98;;
20954;SDS011;10636;19.390;-99.256;2023-05-10T09:40:11;12.98;;;11.73;;
20954;SDS011;10636;19.390;-99.256;2023-05-10T09:42:41;13.32;;;12.23;;
20954;SDS011;10636;19.390;-99.256;2023-05-10T09:45:10;13.15;;;11.93;;
20954;SDS011;10636;19.390;-99.256;2023-05-10T09:47:38;13.73;;;12.63;;
20954;SDS011;10636;19.390;-99.256;2023-05-10T09:50:09;13.07;;;11.85;;
20954;SDS011;10636;19.390;-99.256;2023-05-10T09:52:45;12.77;;;11.63;;
20954;SDS011;10636;19.390;-99.256;2023-05-10T09:55:16;13.35;;;12.25;;
20954;SDS011;10636;19.390;-99.256;2023-05-10T09:57:45;13.55;;;12.35;;
20954;SDS011;10636;19.390;-99.256;2023-05-10T10:00:16;13.65;;;12.45;;
20954;SDS011;10636;19.390;-99.256;2023-05-10T10:02:46;13.50;;;12.10;;
20954;SDS011;10636;19.390;-99.256;2023-05-10T10:05:17;12.70;;;11.70;;
20954;SDS011;10636;19.390;-99.256;2023-05-10T10:07:46;13.13;;;12.02;;
20954;SDS011;10636;19.390;-99.256;2023-05-10T10:10:15;13.05;;;11.82;;
20954;SDS011;10636;19.390;-99.256;2023-05-10T10:12:44;13.77;;;12.48;;
20954;SDS011;10636;19.390;-99.256;2023-05-10T10:15:13;12.93;;;11.60;;
20954;SDS011;10636;19.390;-99.256;2023-05-10T10:17:41;12.65;;;11.57;;
20954;SDS011;10636;19.390;-99.256;2023-05-10T10:20:11;12.80;;;11.60;;
20954;SDS011;10636;19.390;-99.256;2023-05-10T10:22:42;13.32;;;12.02;;
20954;SDS011;10636;19.390;-99.256;2023-05-10T10:25:11;12.55;;;11.48;;
20954;SDS011;10636;19.390;-99.256;2023-05-10T10:27:43;13.80;;;12.60;;
20954;SDS011;10636;19.390;-99.256;2023-05-10T10:30:22;13.55;;;12.35;;
20954;SDS011;10636;19.390;-99.256;2023-05-10T10:33:13;13.70;;;12.57;;
20954;SDS011;10636;19.390;-99.256;2023-05-10T10:35:57;13.75;;;12.55;;
20954;SDS011;10636;19.390;-99.256;2023-05-10T10:38:37;13.40;;;12.10;;
20954;SDS011;10636;19.390;-99.256;2023-05-10T10:41:28;13.75;;;12.45;;
20954;SDS011;10636;19.390;-99.256;2023-05-10T10:47:08;14.43;;;13.07;;
20954;SDS011;10636;19.390;-99.256;2023-05-10T10:50:02;13.40;;;12.25;;
20954;SDS011;10636;19.390;-99.256;2023-05-10T10:52:33;13.38;;;12.07;;
20954;SDS011;10636;19.390;-99.256;2023-05-10T10:55:05;13.48;;;12.05;;
20954;SDS011;10636;19.390;-99.256;2023-05-10T10:57:42;14.85;;;13.55;;
20954;SDS011;10636;19.390;-99.256;2023-05-10T11:00:22;13.40;;;12.00;;
20954;SDS011;10636;19.390;-99.256;2023-05-10T11:02:53;14.00;;;12.70;;
20954;SDS011;10636;19.390;-99.256;2023-05-10T11:05:24;13.65;;;12.45;;
20954;SDS011;10636;19.390;-99.256;2023-05-10T11:08:06;13.65;;;12.45;;
20954;SDS011;10636;19.390;-99.256;2023-05-10T11:10:48;13.25;;;11.90;;
20954;SDS011;10636;19.390;-99.256;2023-05-10T11:13:27;14.10;;;12.80;;
20954;SDS011;10636;19.390;-99.256;2023-05-10T11:15:57;13.57;;;12.18;;
20954;SDS011;10636;19.390;-99.256;2023-05-10T11:18:27;13.38;;;12.07;;
20954;SDS011;10636;19.390;-99.256;2023-05-10T11:20:56;13.90;;;12.50;;
20954;SDS011;10636;19.390;-99.256;2023-05-10T11:23:31;13.40;;;12.10;;
20954;SDS011;10636;19.390;-99.256;2023-05-10T11:26:16;14.13;;;12.65;;
20954;SDS011;10636;19.390;-99.256;2023-05-10T11:28:45;14.23;;;12.93;;
20954;SDS011;10636;19.390;-99.256;2023-05-10T11:31:14;13.32;;;12.02;;
20954;SDS011;10636;19.390;-99.256;2023-05-10T11:33:43;13.50;;;12.13;;
20954;SDS011;10636;19.390;-99.256;2023-05-10T11:36:13;14.00;;;12.73;;
20954;SDS011;10636;19.390;-99.256;2023-05-10T11:38:42;13.90;;;12.60;;
20954;SDS011;10636;19.390;-99.256;2023-05-10T11:41:11;13.85;;;12.65;;
20954;SDS011;10636;19.390;-99.256;2023-05-10T11:43:41;14.23;;;12.93;;
20954;SDS011;10636;19.390;-99.256;2023-05-10T11:46:11;13.48;;;12.07;;
20954;SDS011;10636;19.390;-99.256;2023-05-10T11:48:40;13.63;;;12.48;;
20954;SDS011;10636;19.390;-99.256;2023-05-10T11:51:09;15.05;;;12.25;;
20954;SDS011;10636;19.390;-99.256;2023-05-10T11:53:38;14.82;;;13.30;;
20954;SDS011;10636;19.390;-99.256;2023-05-10T11:56:07;14.32;;;12.82;;
20954;SDS011;10636;19.390;-99.256;2023-05-10T11:58:37;14.25;;;12.75;;
20954;SDS011;10636;19.390;-99.256;2023-05-10T12:01:08;17.20;;;15.55;;
20954;SDS011;10636;19.390;-99.256;2023-05-10T12:03:37;20.83;;;18.83;;
20954;SDS011;10636;19.390;-99.256;2023-05-10T12:06:07;22.30;;;20.23;;
20954;SDS011;10636;19.390;-99.256;2023-05-10T12:08:36;22.85;;;20.48;;
20954;SDS011;10636;19.390;-99.256;2023-05-10T12:11:11;22.80;;;20.52;;
20954;SDS011;10636;19.390;-99.256;2023-05-10T12:13:42;22.70;;;20.63;;
20954;SDS011;10636;19.390;-99.256;2023-05-10T12:16:17;21.65;;;19.65;;
20954;SDS011;10636;19.390;-99.256;2023-05-10T12:18:48;22.60;;;20.23;;
20954;SDS011;10636;19.390;-99.256;2023-05-10T12:21:16;21.85;;;19.80;;
20954;SDS011;10636;19.390;-99.256;2023-05-10T12:23:46;21.85;;;19.95;;
20954;SDS011;10636;19.390;-99.256;2023-05-10T12:26:17;22.80;;;20.67;;
20954;SDS011;10636;19.390;-99.256;2023-05-10T12:28:46;21.75;;;19.58;;
20954;SDS011;10636;19.390;-99.256;2023-05-10T12:31:14;20.52;;;17.83;;
20954;SDS011;10636;19.390;-99.256;2023-05-10T12:33:44;20.38;;;18.38;;
20954;SDS011;10636;19.390;-99.256;2023-05-10T12:36:16;20.88;;;18.98;;
20954;SDS011;10636;19.390;-99.256;2023-05-10T12:38:50;21.08;;;19.05;;
20954;SDS011;10636;19.390;-99.256;2023-05-10T12:41:30;19.67;;;17.88;;
20954;SDS011;10636;19.390;-99.256;2023-05-10T12:43:58;19.42;;;17.63;;
20954;SDS011;10636;19.390;-99.256;2023-05-10T12:46:28;19.92;;;17.92;;
20954;SDS011;10636;19.390;-99.256;2023-05-10T12:48:57;21.30;;;19.23;;
20954;SDS011;10636;19.390;-99.256;2023-05-10T12:51:26;20.58;;;18.58;;
20954;SDS011;10636;19.390;-99.256;2023-05-10T12:53:54;20.15;;;18.23;;
20954;SDS011;10636;19.390;-99.256;2023-05-10T12:56:23;19.60;;;17.27;;
20954;SDS011;10636;19.390;-99.256;2023-05-10T12:58:52;19.58;;;17.83;;
20954;SDS011;10636;19.390;-99.256;2023-05-10T13:01:20;20.42;;;18.35;;
20954;SDS011;10636;19.390;-99.256;2023-05-10T13:03:50;19.10;;;17.30;;
20954;SDS011;10636;19.390;-99.256;2023-05-10T13:06:18;20.02;;;18.23;;
20954;SDS011;10636;19.390;-99.256;2023-05-10T13:08:47;19.45;;;17.50;;
20954;SDS011;10636;19.390;-99.256;2023-05-10T13:11:15;19.63;;;17.83;;
20954;SDS011;10636;19.390;-99.256;2023-05-10T13:13:45;20.13;;;18.13;;
20954;SDS011;10636;19.390;-99.256;2023-05-10T13:16:13;20.25;;;18.23;;
20954;SDS011;10636;19.390;-99.256;2023-05-10T13:18:42;19.30;;;17.58;;
20954;SDS011;10636;19.390;-99.256;2023-05-10T13:21:12;19.88;;;18.08;;
20954;SDS011;10636;19.390;-99.256;2023-05-10T13:23:40;19.17;;;17.38;;
20954;SDS011;10636;19.390;-99.256;2023-05-10T13:26:09;19.88;;;17.98;;
20954;SDS011;10636;19.390;-99.256;2023-05-10T13:28:37;19.48;;;17.63;;
20954;SDS011;10636;19.390;-99.256;2023-05-10T13:31:07;18.67;;;16.75;;
20954;SDS011;10636;19.390;-99.256;2023-05-10T13:33:35;19.48;;;17.48;;
20954;SDS011;10636;19.390;-99.256;2023-05-10T13:36:04;19.33;;;17.42;;
20954;SDS011;10636;19.390;-99.256;2023-05-10T13:38:35;19.63;;;17.83;;
20954;SDS011;10636;19.390;-99.256;2023-05-10T13:41:03;19.17;;;17.30;;
20954;SDS011;10636;19.390;-99.256;2023-05-10T13:43:32;18.08;;;16.48;;
20954;SDS011;10636;19.390;-99.256;2023-05-10T13:46:00;19.23;;;17.33;;
20954;SDS011;10636;19.390;-99.256;2023-05-10T13:48:29;19.08;;;17.27;;
20954;SDS011;10636;19.390;-99.256;2023-05-10T13:50:57;18.25;;;16.65;;
20954;SDS011;10636;19.390;-99.256;2023-05-10T13:53:26;18.75;;;17.05;;
20954;SDS011;10636;19.390;-99.256;2023-05-10T13:55:56;19.60;;;17.80;;
20954;SDS011;10636;19.390;-99.256;2023-05-10T13:58:24;18.27;;;16.50;;
20954;SDS011;10636;19.390;-99.256;2023-05-10T14:00:53;19.08;;;17.38;;
20954;SDS011;10636;19.390;-99.256;2023-05-10T14:03:21;19.27;;;17.48;;
20954;SDS011;10636;19.390;-99.256;2023-05-10T14:05:49;20.20;;;18.27;;
20954;SDS011;10636;19.390;-99.256;2023-05-10T14:08:18;19.75;;;17.98;;
20954;SDS011;10636;19.390;-99.256;2023-05-10T14:10:49;20.73;;;18.83;;
20954;SDS011;10636;19.390;-99.256;2023-05-10T14:13:20;20.17;;;18.10;;
20954;SDS011;10636;19.390;-99.256;2023-05-10T14:15:50;19.20;;;17.25;;
20954;SDS011;10636;19.390;-99.256;2023-05-10T14:18:20;20.48;;;18.30;;
20954;SDS011;10636;19.390;-99.256;2023-05-10T14:20:48;21.08;;;19.00;;
20954;SDS011;10636;19.390;-99.256;2023-05-10T14:23:20;20.80;;;18.70;;